createdAt,value
2022-10-22T00:00:21.007Z,1.35
2022-10-22T00:00:52.561Z,1.53
2022-10-22T00:01:23.972Z,1.45
2022-10-22T00:01:55.306Z,1.38
2022-10-22T00:02:26.765Z,1.10
2022-10-22T00:02:58.161Z,1.30
2022-10-22T00:03:29.780Z,1.38
2022-10-22T00:04:01.123Z,1.30
2022-10-22T00:04:34.636Z,1.60
2022-10-22T00:05:07.732Z,2.17
2022-10-22T00:05:39.088Z,2.22
2022-10-22T00:06:10.401Z,1.63
2022-10-22T00:06:41.816Z,1.48
2022-10-22T00:07:13.320Z,1.30
2022-10-22T00:07:44.773Z,1.42
2022-10-22T00:08:16.131Z,1.95
2022-10-22T00:08:47.659Z,1.85
2022-10-22T00:09:19.159Z,1.60
2022-10-22T00:09:50.644Z,1.67
2022-10-22T00:10:22.198Z,1.25
2022-10-22T00:10:53.535Z,1.83
2022-10-22T00:11:25.114Z,1.27
2022-10-22T00:11:56.447Z,1.40
2022-10-22T00:12:28.231Z,1.50
2022-10-22T00:12:59.938Z,1.33
2022-10-22T00:13:31.259Z,1.27
2022-10-22T00:14:02.616Z,1.40
2022-10-22T00:14:34.094Z,1.25
2022-10-22T00:15:06.292Z,1.20
2022-10-22T00:15:37.698Z,1.80
2022-10-22T00:16:09.147Z,1.83
2022-10-22T00:16:40.488Z,1.50
2022-10-22T00:17:11.976Z,1.13
2022-10-22T00:17:43.396Z,1.35
2022-10-22T00:18:14.917Z,1.30
2022-10-22T00:18:46.258Z,1.70
2022-10-22T00:19:17.585Z,1.50
2022-10-22T00:19:49.034Z,1.20
2022-10-22T00:20:20.370Z,1.80
2022-10-22T00:20:51.724Z,1.30
2022-10-22T00:21:23.110Z,1.20
2022-10-22T00:21:54.443Z,1.50
2022-10-22T00:22:26.345Z,1.10
2022-10-22T00:22:57.874Z,1.20
2022-10-22T00:23:29.270Z,1.13
2022-10-22T00:24:00.627Z,1.35
2022-10-22T00:24:32.538Z,1.90
2022-10-22T00:25:04.110Z,1.23
2022-10-22T00:25:35.643Z,1.33
2022-10-22T00:26:07.031Z,1.60
2022-10-22T00:26:38.477Z,1.38
2022-10-22T00:27:10.792Z,1.73
2022-10-22T00:27:44.617Z,0.90
2022-10-22T00:28:15.937Z,1.42
2022-10-22T00:28:47.472Z,1.58
2022-10-22T00:29:18.802Z,1.23
2022-10-22T00:29:50.256Z,1.10
2022-10-22T00:30:21.603Z,1.40
2022-10-22T00:30:56.713Z,1.65
2022-10-22T00:31:28.115Z,1.65
2022-10-22T00:31:59.585Z,1.13
2022-10-22T00:32:30.942Z,1.30
2022-10-22T00:33:02.338Z,1.65
2022-10-22T00:33:34.167Z,1.58
2022-10-22T00:34:05.678Z,1.63
2022-10-22T00:34:37.046Z,1.98
2022-10-22T00:35:08.611Z,1.30
2022-10-22T00:35:39.962Z,1.20
2022-10-22T00:36:11.375Z,1.17
2022-10-22T00:36:42.908Z,1.58
2022-10-22T00:37:14.269Z,1.33
2022-10-22T00:37:45.819Z,1.10
2022-10-22T00:38:17.157Z,1.25
2022-10-22T00:38:48.652Z,1.50
2022-10-22T00:39:20.846Z,1.40
2022-10-22T00:39:52.247Z,1.40
2022-10-22T00:40:23.777Z,1.13
2022-10-22T00:40:55.173Z,1.40
2022-10-22T00:41:26.793Z,1.40
2022-10-22T00:41:58.691Z,1.20
2022-10-22T00:42:30.030Z,1.15
2022-10-22T00:43:01.381Z,1.60
2022-10-22T00:43:32.843Z,1.50
2022-10-22T00:44:04.972Z,1.15
2022-10-22T00:44:54.889Z,0.95
2022-10-22T00:45:27.083Z,2.00
2022-10-22T00:45:58.445Z,1.40
2022-10-22T00:46:30.252Z,1.50
2022-10-22T00:47:01.662Z,1.40
2022-10-22T00:47:36.038Z,1.20
2022-10-22T00:48:07.425Z,1.45
2022-10-22T00:48:38.975Z,1.80
2022-10-22T00:49:10.389Z,1.40
2022-10-22T00:49:41.925Z,1.80
2022-10-22T00:50:18.978Z,1.38
2022-10-22T00:50:50.283Z,1.10
2022-10-22T00:51:22.519Z,1.23
2022-10-22T00:51:53.952Z,1.52
2022-10-22T00:52:25.513Z,1.05
2022-10-22T00:52:57.487Z,1.05
2022-10-22T00:53:28.984Z,1.40
2022-10-22T00:54:03.041Z,1.67
2022-10-22T00:54:34.682Z,1.15
2022-10-22T00:55:06.485Z,1.30
2022-10-22T00:55:38.990Z,1.40
2022-10-22T00:56:10.584Z,1.35
2022-10-22T00:56:42.243Z,1.17
2022-10-22T00:57:13.595Z,1.00
2022-10-22T00:57:45.684Z,1.63
2022-10-22T00:58:17.766Z,1.73
2022-10-22T00:58:52.081Z,1.77
2022-10-22T00:59:23.449Z,1.77
2022-10-22T00:59:55.784Z,1.50
2022-10-22T01:00:27.328Z,1.08
2022-10-22T01:00:58.750Z,1.40
2022-10-22T01:01:31.400Z,1.60
2022-10-22T01:02:02.748Z,1.48
2022-10-22T01:02:34.185Z,0.90
2022-10-22T01:03:06.044Z,2.03
2022-10-22T01:03:37.438Z,1.58
2022-10-22T01:04:08.776Z,1.30
2022-10-22T01:04:40.857Z,1.70
2022-10-22T01:05:12.355Z,0.95
2022-10-22T01:05:51.093Z,1.50
2022-10-22T01:06:33.053Z,1.52
2022-10-22T01:07:04.731Z,1.37
2022-10-22T01:07:40.157Z,1.60
2022-10-22T01:08:21.608Z,1.30
2022-10-22T01:09:07.950Z,1.92
2022-10-22T01:09:39.451Z,1.98
2022-10-22T01:10:10.907Z,1.60
2022-10-22T01:10:53.599Z,1.50
2022-10-22T01:11:48.031Z,1.58
2022-10-22T01:12:40.226Z,1.50
2022-10-22T01:13:21.081Z,1.15
2022-10-22T01:13:55.645Z,1.30
2022-10-22T01:14:45.080Z,1.42
2022-10-22T01:15:25.261Z,1.13
2022-10-22T01:16:00.548Z,1.52
2022-10-22T01:16:36.377Z,1.05
2022-10-22T01:17:17.044Z,1.52
2022-10-22T01:18:14.480Z,0.90
2022-10-22T01:18:59.160Z,2.45
2022-10-22T01:19:49.384Z,1.20
2022-10-22T01:20:20.888Z,1.42
2022-10-22T01:21:10.562Z,1.60
2022-10-22T01:21:43.992Z,1.40
2022-10-22T01:22:18.099Z,1.50
2022-10-22T01:22:49.507Z,1.08
2022-10-22T01:23:47.274Z,1.60
2022-10-22T01:24:32.345Z,1.23
2022-10-22T01:25:17.150Z,1.10
2022-10-22T01:26:11.644Z,1.00
2022-10-22T01:26:49.254Z,1.30
2022-10-22T01:27:26.735Z,1.38
2022-10-22T01:28:18.343Z,1.25
2022-10-22T01:28:52.640Z,1.33
2022-10-22T01:29:23.974Z,1.08
2022-10-22T01:30:00.332Z,1.50
2022-10-22T01:30:31.858Z,0.93
2022-10-22T01:31:06.941Z,1.70
2022-10-22T01:31:40.063Z,1.33
2022-10-22T01:32:13.966Z,1.63
2022-10-22T01:32:48.171Z,1.30
2022-10-22T01:33:21.144Z,1.45
2022-10-22T01:33:53.309Z,1.40
2022-10-22T01:34:25.395Z,1.08
2022-10-22T01:35:04.222Z,1.40
2022-10-22T01:35:37.514Z,1.63
2022-10-22T01:36:09.561Z,1.50
2022-10-22T01:36:41.489Z,1.52
2022-10-22T01:37:16.631Z,1.23
2022-10-22T01:37:53.259Z,1.48
2022-10-22T01:38:25.071Z,1.02
2022-10-22T01:38:56.825Z,1.20
2022-10-22T01:39:29.334Z,1.42
2022-10-22T01:40:01.463Z,1.50
2022-10-22T01:40:34.080Z,1.38
2022-10-22T01:41:05.636Z,1.35
2022-10-22T01:41:39.461Z,1.48
2022-10-22T01:42:12.463Z,1.70
2022-10-22T01:42:53.420Z,1.40
2022-10-22T01:43:24.808Z,1.60
2022-10-22T01:43:56.244Z,2.20
2022-10-22T01:45:11.546Z,1.75
2022-10-22T01:45:44.627Z,1.65
2022-10-22T01:46:22.768Z,1.80
2022-10-22T01:47:14.485Z,1.75
2022-10-22T01:47:58.065Z,1.17
2022-10-22T01:48:29.445Z,1.52
2022-10-22T01:49:10.829Z,1.42
2022-10-22T01:49:48.329Z,1.55
2022-10-22T01:50:19.689Z,1.88
2022-10-22T01:51:09.656Z,1.35
2022-10-22T01:51:54.612Z,1.50
2022-10-22T01:52:35.521Z,1.77
2022-10-22T01:53:15.863Z,1.60
2022-10-22T01:53:53.716Z,1.85
2022-10-22T01:54:34.198Z,2.00
2022-10-22T01:55:08.572Z,1.70
2022-10-22T01:55:58.873Z,1.40
2022-10-22T01:56:45.455Z,1.63
2022-10-22T01:57:16.831Z,1.60
2022-10-22T01:58:00.185Z,1.45
2022-10-22T01:58:51.847Z,1.67
2022-10-22T01:59:26.312Z,1.75
2022-10-22T02:00:04.346Z,1.75
2022-10-22T02:00:38.512Z,1.52
2022-10-22T02:01:10.012Z,2.00
2022-10-22T02:01:41.499Z,1.90
2022-10-22T02:02:31.750Z,1.80
2022-10-22T02:03:10.101Z,1.35
2022-10-22T02:03:45.273Z,1.52
2022-10-22T02:04:25.769Z,1.50
2022-10-22T02:05:00.742Z,2.10
2022-10-22T02:05:34.946Z,1.92
2022-10-22T02:06:09.591Z,1.80
2022-10-22T02:06:43.621Z,1.90
2022-10-22T02:07:18.227Z,1.50
2022-10-22T02:07:55.396Z,1.63
2022-10-22T02:08:29.338Z,1.42
2022-10-22T02:09:01.707Z,1.73
2022-10-22T02:09:33.813Z,1.88
2022-10-22T02:10:06.315Z,1.27
2022-10-22T02:10:39.134Z,1.80
2022-10-22T02:11:12.294Z,1.65
2022-10-22T02:11:44.105Z,1.98
2022-10-22T02:12:16.463Z,1.73
2022-10-22T02:12:52.051Z,2.30
2022-10-22T02:13:25.997Z,1.77
2022-10-22T02:14:01.178Z,1.40
2022-10-22T02:14:34.086Z,2.00
2022-10-22T02:15:05.831Z,1.60
2022-10-22T02:15:38.452Z,1.58
2022-10-22T02:16:11.168Z,1.60
2022-10-22T02:16:47.420Z,1.50
2022-10-22T02:17:21.207Z,1.92
2022-10-22T02:17:53.209Z,1.35
2022-10-22T02:18:27.257Z,1.60
2022-10-22T02:19:01.154Z,1.73
2022-10-22T02:19:47.649Z,1.70
2022-10-22T02:20:27.319Z,1.55
2022-10-22T02:20:59.825Z,1.37
2022-10-22T02:21:31.657Z,1.85
2022-10-22T02:22:03.637Z,2.22
2022-10-22T02:22:35.270Z,1.45
2022-10-22T02:23:06.987Z,1.40
2022-10-22T02:23:38.516Z,1.40
2022-10-22T02:24:10.122Z,2.15
2022-10-22T02:24:41.591Z,1.40
2022-10-22T02:25:14.255Z,1.55
2022-10-22T02:25:48.042Z,1.27
2022-10-22T02:26:30.801Z,1.45
2022-10-22T02:27:12.425Z,1.60
2022-10-22T02:27:49.342Z,1.40
2022-10-22T02:28:25.298Z,1.75
2022-10-22T02:28:59.688Z,2.10
2022-10-22T02:29:35.064Z,1.80
2022-10-22T02:30:17.464Z,1.98
2022-10-22T02:30:51.823Z,1.88
2022-10-22T02:31:24.645Z,1.58
2022-10-22T02:31:56.843Z,1.75
2022-10-22T02:32:31.148Z,1.80
2022-10-22T02:33:04.343Z,1.60
2022-10-22T02:33:40.031Z,1.30
2022-10-22T02:34:14.073Z,1.58
2022-10-22T02:34:46.317Z,1.80
2022-10-22T02:35:19.747Z,1.70
2022-10-22T02:35:52.064Z,2.42
2022-10-22T02:36:23.813Z,1.63
2022-10-22T02:36:55.909Z,1.95
2022-10-22T02:37:27.644Z,1.40
2022-10-22T02:37:59.768Z,2.15
2022-10-22T02:38:31.963Z,1.50
2022-10-22T02:39:04.302Z,1.70
2022-10-22T02:39:36.123Z,1.80
2022-10-22T02:40:08.119Z,2.05
2022-10-22T02:40:39.562Z,1.60
2022-10-22T02:41:11.051Z,1.67
2022-10-22T02:41:42.589Z,1.63
2022-10-22T02:42:14.176Z,2.20
2022-10-22T02:42:47.421Z,1.65
2022-10-22T02:43:19.475Z,1.75
2022-10-22T02:43:53.500Z,1.60
2022-10-22T02:44:24.890Z,1.75
2022-10-22T02:44:56.278Z,1.40
2022-10-22T02:45:27.766Z,2.00
2022-10-22T02:45:59.714Z,1.30
2022-10-22T02:46:31.101Z,1.48
2022-10-22T02:47:02.584Z,1.60
2022-10-22T02:47:33.979Z,1.60
2022-10-22T02:48:05.622Z,1.75
2022-10-22T02:48:37.372Z,1.83
2022-10-22T02:49:08.949Z,1.73
2022-10-22T02:49:40.330Z,1.42
2022-10-22T02:50:11.882Z,1.60
2022-10-22T02:50:43.307Z,1.90
2022-10-22T02:51:14.857Z,1.90
2022-10-22T02:51:46.248Z,2.05
2022-10-22T02:52:17.633Z,1.40
2022-10-22T02:52:49.111Z,1.55
2022-10-22T02:53:20.518Z,1.38
2022-10-22T02:53:51.993Z,1.48
2022-10-22T02:54:23.378Z,1.50
2022-10-22T02:54:54.771Z,2.05
2022-10-22T02:55:26.299Z,2.17
2022-10-22T02:55:57.945Z,1.67
2022-10-22T02:56:29.383Z,1.73
2022-10-22T02:57:00.769Z,1.55
2022-10-22T02:57:32.976Z,1.50
2022-10-22T02:58:04.308Z,1.83
2022-10-22T02:58:35.883Z,1.05
2022-10-22T02:59:07.284Z,1.60
2022-10-22T02:59:38.673Z,1.83
2022-10-22T03:00:11.146Z,1.50
2022-10-22T03:00:42.553Z,1.17
2022-10-22T03:01:16.133Z,1.42
2022-10-22T03:01:47.802Z,1.77
2022-10-22T03:02:19.340Z,1.77
2022-10-22T03:02:50.722Z,1.55
2022-10-22T03:03:22.178Z,1.40
2022-10-22T03:03:53.667Z,1.98
2022-10-22T03:04:25.139Z,2.05
2022-10-22T03:04:56.517Z,1.63
2022-10-22T03:05:27.970Z,1.40
2022-10-22T03:05:59.508Z,1.80
2022-10-22T03:06:30.994Z,1.20
2022-10-22T03:07:02.481Z,1.67
2022-10-22T03:07:33.862Z,1.92
2022-10-22T03:08:05.304Z,2.40
2022-10-22T03:08:36.741Z,1.50
2022-10-22T03:09:08.514Z,2.00
2022-10-22T03:09:40.026Z,1.42
2022-10-22T03:10:11.511Z,1.88
2022-10-22T03:10:43.502Z,2.00
2022-10-22T03:11:14.903Z,1.13
2022-10-22T03:11:46.437Z,1.90
2022-10-22T03:12:17.997Z,1.90
2022-10-22T03:12:49.467Z,1.80
2022-10-22T03:13:20.865Z,1.67
2022-10-22T03:13:52.395Z,1.92
2022-10-22T03:14:23.834Z,1.70
2022-10-22T03:14:55.217Z,1.52
2022-10-22T03:16:02.958Z,1.60
2022-10-22T03:16:34.368Z,2.03
2022-10-22T03:17:05.824Z,1.67
2022-10-22T03:17:37.466Z,1.67
2022-10-22T03:18:09.114Z,2.30
2022-10-22T03:18:40.604Z,1.30
2022-10-22T03:19:11.989Z,1.98
2022-10-22T03:19:43.483Z,2.05
2022-10-22T03:20:14.902Z,1.88
2022-10-22T03:20:46.249Z,2.25
2022-10-22T03:21:20.707Z,2.08
2022-10-22T03:21:52.038Z,1.75
2022-10-22T03:22:24.967Z,2.17
2022-10-22T03:22:56.968Z,2.30
2022-10-22T03:23:28.409Z,1.90
2022-10-22T03:24:01.447Z,1.70
2022-10-22T03:24:38.104Z,1.92
2022-10-22T03:25:14.031Z,2.10
2022-10-22T03:25:46.309Z,1.60
2022-10-22T03:26:18.698Z,2.10
2022-10-22T03:26:50.966Z,2.10
2022-10-22T03:27:23.003Z,2.25
2022-10-22T03:27:55.482Z,1.92
2022-10-22T03:28:26.922Z,2.28
2022-10-22T03:28:58.346Z,2.30
2022-10-22T03:29:31.490Z,2.07
2022-10-22T03:30:03.565Z,2.10
2022-10-22T03:30:35.067Z,2.63
2022-10-22T03:31:06.546Z,2.08
2022-10-22T03:31:38.042Z,2.13
2022-10-22T03:32:09.487Z,1.50
2022-10-22T03:32:41.065Z,2.13
2022-10-22T03:33:12.446Z,2.15
2022-10-22T03:33:43.950Z,1.73
2022-10-22T03:34:15.297Z,1.90
2022-10-22T03:34:46.811Z,1.95
2022-10-22T03:35:18.351Z,1.85
2022-10-22T03:35:49.901Z,2.20
2022-10-22T03:36:21.491Z,1.50
2022-10-22T03:36:53.243Z,1.97
2022-10-22T03:37:25.128Z,2.30
2022-10-22T03:37:56.574Z,1.80
2022-10-22T03:38:28.784Z,1.60
2022-10-22T03:39:01.234Z,2.00
2022-10-22T03:39:34.055Z,1.75
2022-10-22T03:40:06.458Z,2.38
2022-10-22T03:40:40.200Z,2.05
2022-10-22T03:41:11.593Z,1.98
2022-10-22T03:41:43.181Z,2.05
2022-10-22T03:42:14.767Z,1.50
2022-10-22T03:42:46.457Z,1.75
2022-10-22T03:43:17.846Z,1.95
2022-10-22T03:43:49.265Z,1.70
2022-10-22T03:44:21.542Z,1.65
2022-10-22T03:44:52.920Z,1.90
2022-10-22T03:45:24.460Z,2.13
2022-10-22T03:45:55.908Z,2.15
2022-10-22T03:46:27.545Z,2.25
2022-10-22T03:47:01.739Z,2.13
2022-10-22T03:47:35.260Z,2.30
2022-10-22T03:48:06.670Z,1.90
2022-10-22T03:48:38.024Z,1.55
2022-10-22T03:49:11.897Z,1.27
2022-10-22T03:49:43.443Z,1.87
2022-10-22T03:50:14.885Z,2.38
2022-10-22T03:50:46.317Z,1.50
2022-10-22T03:51:17.731Z,1.88
2022-10-22T03:51:49.195Z,2.07
2022-10-22T03:52:20.629Z,2.28
2022-10-22T03:52:52.015Z,2.10
2022-10-22T03:53:23.657Z,2.08
2022-10-22T03:53:55.102Z,1.60
2022-10-22T03:54:26.638Z,2.05
2022-10-22T03:54:58.070Z,2.25
2022-10-22T03:55:29.511Z,2.15
2022-10-22T03:56:00.946Z,2.00
2022-10-22T03:56:32.489Z,1.75
2022-10-22T03:57:04.791Z,1.65
2022-10-22T03:57:36.179Z,1.98
2022-10-22T03:58:07.769Z,2.05
2022-10-22T03:58:40.024Z,1.83
2022-10-22T03:59:11.458Z,1.77
2022-10-22T03:59:43.877Z,2.22
2022-10-22T04:00:15.313Z,2.17
2022-10-22T04:00:46.864Z,2.33
2022-10-22T04:01:18.351Z,2.35
2022-10-22T04:01:49.982Z,1.83
2022-10-22T04:02:21.374Z,1.92
2022-10-22T04:02:52.805Z,1.90
2022-10-22T04:03:24.191Z,1.42
2022-10-22T04:03:55.896Z,2.20
2022-10-22T04:04:27.291Z,1.95
2022-10-22T04:04:58.774Z,2.75
2022-10-22T04:05:31.897Z,1.85
2022-10-22T04:06:10.614Z,2.03
2022-10-22T04:06:42.186Z,2.03
2022-10-22T04:07:13.628Z,1.73
2022-10-22T04:07:45.008Z,2.50
2022-10-22T04:08:16.442Z,1.65
2022-10-22T04:08:48.030Z,1.77
2022-10-22T04:09:19.487Z,1.65
2022-10-22T04:09:53.467Z,1.45
2022-10-22T04:10:24.922Z,2.17
2022-10-22T04:10:56.355Z,1.90
2022-10-22T04:11:27.713Z,1.85
2022-10-22T04:11:59.218Z,1.52
2022-10-22T04:12:30.652Z,1.67
2022-10-22T04:13:02.051Z,1.58
2022-10-22T04:13:33.484Z,2.10
2022-10-22T04:14:05.022Z,1.15
2022-10-22T04:14:36.407Z,1.83
2022-10-22T04:15:08.097Z,2.00
2022-10-22T04:15:39.516Z,1.75
2022-10-22T04:16:11.994Z,1.58
2022-10-22T04:16:43.389Z,1.80
2022-10-22T04:17:15.132Z,1.60
2022-10-22T04:17:46.572Z,1.80
2022-10-22T04:18:18.720Z,1.67
2022-10-22T04:18:50.419Z,2.05
2022-10-22T04:19:21.873Z,1.92
2022-10-22T04:19:53.289Z,2.40
2022-10-22T04:20:24.673Z,1.50
2022-10-22T04:20:58.920Z,1.83
2022-10-22T04:21:30.316Z,1.98
2022-10-22T04:22:01.753Z,1.60
2022-10-22T04:22:34.335Z,1.42
2022-10-22T04:23:05.750Z,2.03
2022-10-22T04:23:37.546Z,1.90
2022-10-22T04:24:08.948Z,1.90
2022-10-22T04:24:40.516Z,1.98
2022-10-22T04:25:11.969Z,1.93
2022-10-22T04:25:43.385Z,1.70
2022-10-22T04:26:14.939Z,2.33
2022-10-22T04:26:46.434Z,1.17
2022-10-22T04:27:17.811Z,2.07
2022-10-22T04:27:49.224Z,1.65
2022-10-22T04:28:20.634Z,1.90
2022-10-22T04:28:52.206Z,2.40
2022-10-22T04:29:23.820Z,1.58
2022-10-22T04:29:55.163Z,2.03
2022-10-22T04:30:27.311Z,2.03
2022-10-22T04:30:58.695Z,1.58
2022-10-22T04:31:30.082Z,1.83
2022-10-22T04:32:01.465Z,1.60
2022-10-22T04:32:32.853Z,1.70
2022-10-22T04:33:04.266Z,1.83
2022-10-22T04:33:35.738Z,1.88
2022-10-22T04:34:07.215Z,1.88
2022-10-22T04:34:38.658Z,1.48
2022-10-22T04:35:10.037Z,2.03
2022-10-22T04:35:41.426Z,1.90
2022-10-22T04:36:14.605Z,2.10
2022-10-22T04:36:45.934Z,2.03
2022-10-22T04:37:17.427Z,2.00
2022-10-22T04:37:48.855Z,2.03
2022-10-22T04:38:20.275Z,1.55
2022-10-22T04:38:52.972Z,1.83
2022-10-22T04:39:24.431Z,1.20
2022-10-22T04:39:58.095Z,2.00
2022-10-22T04:40:29.898Z,2.17
2022-10-22T04:41:14.796Z,1.95
2022-10-22T04:41:46.181Z,1.90
2022-10-22T04:42:17.598Z,1.75
2022-10-22T04:42:49.048Z,1.92
2022-10-22T04:43:20.439Z,1.63
2022-10-22T04:43:53.310Z,1.50
2022-10-22T04:44:25.011Z,2.20
2022-10-22T04:44:56.719Z,1.58
2022-10-22T04:45:28.083Z,1.88
2022-10-22T04:46:00.611Z,1.90
2022-10-22T04:46:33.116Z,1.52
2022-10-22T04:47:04.502Z,1.90
2022-10-22T04:47:35.981Z,1.77
2022-10-22T04:48:07.367Z,1.98
2022-10-22T04:48:40.085Z,2.40
2022-10-22T04:49:11.520Z,1.52
2022-10-22T04:49:42.980Z,1.83
2022-10-22T04:50:14.587Z,2.08
2022-10-22T04:50:46.096Z,1.50
2022-10-22T04:51:18.709Z,2.13
2022-10-22T04:51:50.144Z,1.25
2022-10-22T04:52:21.519Z,1.75
2022-10-22T04:52:53.023Z,2.15
2022-10-22T04:53:24.451Z,1.65
2022-10-22T04:53:55.838Z,1.95
2022-10-22T04:54:30.468Z,1.85
2022-10-22T04:55:04.761Z,2.00
2022-10-22T04:55:36.295Z,1.77
2022-10-22T04:56:14.916Z,1.90
2022-10-22T04:56:46.445Z,1.63
2022-10-22T04:57:17.833Z,1.80
2022-10-22T04:57:49.279Z,1.90
2022-10-22T04:58:20.822Z,2.40
2022-10-22T04:58:55.118Z,2.00
2022-10-22T04:59:26.557Z,1.90
2022-10-22T04:59:57.966Z,1.80
2022-10-22T05:00:29.467Z,2.05
2022-10-22T05:01:00.882Z,2.47
2022-10-22T05:01:35.789Z,2.15
2022-10-22T05:02:09.863Z,2.33
2022-10-22T05:02:41.500Z,2.05
2022-10-22T05:03:12.836Z,1.60
2022-10-22T05:03:44.261Z,2.05
2022-10-22T05:04:17.308Z,1.83
2022-10-22T05:04:48.692Z,2.53
2022-10-22T05:05:20.197Z,1.88
2022-10-22T05:05:51.587Z,1.95
2022-10-22T05:06:23.484Z,2.13
2022-10-22T05:06:54.847Z,2.17
2022-10-22T05:07:26.385Z,2.75
2022-10-22T05:07:57.742Z,1.80
2022-10-22T05:08:29.053Z,1.90
2022-10-22T05:09:07.390Z,1.77
2022-10-22T05:09:38.793Z,1.58
2022-10-22T05:10:10.160Z,2.28
2022-10-22T05:10:41.558Z,2.47
2022-10-22T05:11:22.893Z,2.80
2022-10-22T05:11:54.873Z,2.40
2022-10-22T05:12:26.294Z,1.75
2022-10-22T05:12:57.654Z,2.20
2022-10-22T05:13:29.646Z,2.28
2022-10-22T05:14:02.492Z,1.80
2022-10-22T05:14:33.875Z,1.90
2022-10-22T05:15:05.569Z,2.15
2022-10-22T05:15:36.964Z,2.53
2022-10-22T05:16:08.702Z,2.42
2022-10-22T05:16:40.165Z,2.05
2022-10-22T05:17:11.734Z,2.03
2022-10-22T05:17:43.347Z,1.92
2022-10-22T05:18:17.824Z,2.47
2022-10-22T05:18:51.826Z,1.80
2022-10-22T05:19:24.722Z,2.50
2022-10-22T05:19:56.106Z,2.00
2022-10-22T05:20:27.626Z,2.40
2022-10-22T05:20:59.064Z,1.92
2022-10-22T05:21:30.551Z,2.13
2022-10-22T05:22:02.841Z,1.98
2022-10-22T05:22:34.704Z,2.30
2022-10-22T05:23:06.295Z,2.20
2022-10-22T05:23:38.197Z,2.20
2022-10-22T05:24:09.579Z,2.22
2022-10-22T05:24:40.909Z,1.95
2022-10-22T05:25:12.259Z,1.92
2022-10-22T05:25:43.636Z,2.28
2022-10-22T05:26:16.248Z,2.47
2022-10-22T05:26:51.169Z,2.10
2022-10-22T05:27:23.776Z,2.60
2022-10-22T05:27:57.223Z,2.45
2022-10-22T05:28:31.314Z,1.90
2022-10-22T05:29:02.860Z,2.40
2022-10-22T05:29:34.243Z,1.48
2022-10-22T05:30:05.999Z,2.30
2022-10-22T05:30:37.438Z,2.10
2022-10-22T05:31:10.459Z,1.90
2022-10-22T05:31:42.039Z,2.40
2022-10-22T05:32:13.399Z,2.38
2022-10-22T05:32:44.917Z,1.85
2022-10-22T05:33:17.967Z,2.50
2022-10-22T05:33:52.082Z,1.98
2022-10-22T05:34:23.472Z,1.70
2022-10-22T05:34:54.865Z,2.13
2022-10-22T05:35:26.252Z,2.92
2022-10-22T05:35:58.040Z,2.25
2022-10-22T05:36:29.429Z,2.28
2022-10-22T05:37:00.914Z,1.92
2022-10-22T05:37:32.259Z,1.97
2022-10-22T05:38:03.694Z,1.85
2022-10-22T05:38:35.182Z,2.10
2022-10-22T05:39:07.126Z,2.13
2022-10-22T05:39:38.513Z,1.92
2022-10-22T05:40:19.496Z,2.45
2022-10-22T05:41:08.185Z,2.08
2022-10-22T05:41:39.605Z,2.03
2022-10-22T05:42:11.093Z,1.27
2022-10-22T05:42:42.590Z,2.03
2022-10-22T05:43:14.226Z,2.40
2022-10-22T05:43:45.710Z,2.05
2022-10-22T05:44:17.172Z,2.03
2022-10-22T05:44:48.536Z,2.17
2022-10-22T05:45:19.923Z,2.28
2022-10-22T05:45:51.370Z,1.98
2022-10-22T05:46:23.570Z,1.50
2022-10-22T05:46:54.955Z,1.77
2022-10-22T05:47:26.352Z,2.42
2022-10-22T05:47:57.742Z,2.03
2022-10-22T05:48:29.566Z,2.45
2022-10-22T05:49:02.282Z,2.08
2022-10-22T05:49:33.723Z,2.03
2022-10-22T05:50:05.368Z,1.90
2022-10-22T05:50:37.423Z,1.90
2022-10-22T05:51:09.888Z,2.33
2022-10-22T05:51:41.472Z,1.90
2022-10-22T05:52:12.857Z,1.80
2022-10-22T05:52:44.367Z,1.98
2022-10-22T05:53:16.095Z,2.20
2022-10-22T05:53:51.063Z,1.90
2022-10-22T05:54:22.495Z,2.08
2022-10-22T05:54:53.881Z,1.65
2022-10-22T05:55:25.351Z,2.35
2022-10-22T05:55:59.434Z,2.17
2022-10-22T05:56:31.471Z,2.17
2022-10-22T05:57:02.873Z,2.33
2022-10-22T05:57:34.373Z,1.90
2022-10-22T05:58:06.152Z,1.98
2022-10-22T05:58:37.836Z,2.20
2022-10-22T05:59:10.359Z,2.20
2022-10-22T05:59:41.786Z,1.88
2022-10-22T06:00:16.390Z,2.72
2022-10-22T06:00:47.997Z,1.93
2022-10-22T06:01:19.374Z,2.67
2022-10-22T06:01:50.798Z,2.25
2022-10-22T06:02:22.281Z,2.25
2022-10-22T06:02:53.749Z,1.92
2022-10-22T06:03:25.072Z,1.93
2022-10-22T06:03:57.639Z,2.42
2022-10-22T06:04:29.021Z,2.00
2022-10-22T06:05:00.418Z,1.83
2022-10-22T06:05:34.657Z,2.30
2022-10-22T06:06:12.448Z,2.10
2022-10-22T06:06:48.858Z,2.17
2022-10-22T06:07:20.239Z,2.05
2022-10-22T06:07:51.673Z,2.47
2022-10-22T06:08:23.167Z,2.75
2022-10-22T06:08:55.705Z,2.97
2022-10-22T06:09:28.918Z,2.20
2022-10-22T06:10:00.358Z,3.97
2022-10-22T06:10:31.831Z,3.90
2022-10-22T06:11:03.177Z,3.05
2022-10-22T06:11:35.338Z,2.80
2022-10-22T06:12:07.078Z,2.25
2022-10-22T06:12:38.619Z,2.63
2022-10-22T06:13:10.298Z,2.47
2022-10-22T06:13:41.892Z,2.78
2022-10-22T06:14:13.319Z,1.88
2022-10-22T06:14:44.761Z,2.33
2022-10-22T06:15:16.933Z,2.20
2022-10-22T06:15:48.813Z,2.33
2022-10-22T06:16:20.249Z,2.00
2022-10-22T06:16:52.043Z,2.03
2022-10-22T06:17:23.385Z,2.30
2022-10-22T06:17:54.857Z,1.95
2022-10-22T06:18:26.204Z,2.58
2022-10-22T06:18:59.022Z,2.13
2022-10-22T06:19:30.462Z,2.40
2022-10-22T06:20:01.894Z,2.10
2022-10-22T06:20:34.262Z,2.27
2022-10-22T06:21:06.567Z,2.63
2022-10-22T06:21:38.071Z,2.20
2022-10-22T06:22:09.492Z,1.88
2022-10-22T06:22:41.074Z,3.03
2022-10-22T06:23:12.577Z,1.70
2022-10-22T06:23:44.414Z,2.28
2022-10-22T06:24:15.889Z,2.35
2022-10-22T06:24:47.304Z,2.28
2022-10-22T06:25:18.683Z,2.40
2022-10-22T06:25:56.572Z,2.15
2022-10-22T06:26:28.364Z,2.20
2022-10-22T06:26:59.754Z,3.00
2022-10-22T06:27:31.243Z,2.60
2022-10-22T06:28:02.631Z,2.63
2022-10-22T06:28:34.453Z,2.28
2022-10-22T06:29:05.861Z,2.90
2022-10-22T06:29:37.317Z,2.05
2022-10-22T06:30:09.001Z,2.17
2022-10-22T06:30:42.947Z,2.35
2022-10-22T06:31:17.392Z,2.03
2022-10-22T06:31:48.831Z,2.60
2022-10-22T06:32:20.324Z,1.90
2022-10-22T06:32:51.708Z,1.90
2022-10-22T06:33:23.166Z,2.40
2022-10-22T06:33:54.682Z,2.38
2022-10-22T06:34:26.130Z,2.10
2022-10-22T06:34:57.710Z,2.13
2022-10-22T06:35:29.091Z,2.75
2022-10-22T06:36:07.881Z,2.65
2022-10-22T06:36:42.957Z,2.17
2022-10-22T06:37:14.570Z,2.05
2022-10-22T06:37:45.958Z,2.08
2022-10-22T06:38:17.330Z,2.30
2022-10-22T06:38:51.392Z,2.65
2022-10-22T06:39:22.781Z,2.75
2022-10-22T06:39:54.151Z,2.38
2022-10-22T06:40:25.605Z,1.88
2022-10-22T06:41:01.913Z,2.63
2022-10-22T06:41:33.480Z,2.72
2022-10-22T06:42:04.936Z,3.40
2022-10-22T06:42:36.539Z,2.70
2022-10-22T06:43:07.907Z,3.10
2022-10-22T06:43:39.619Z,2.60
2022-10-22T06:44:17.697Z,2.33
2022-10-22T06:44:49.083Z,2.35
2022-10-22T06:45:20.520Z,2.08
2022-10-22T06:45:52.004Z,3.13
2022-10-22T06:46:24.055Z,2.78
2022-10-22T06:46:55.483Z,2.65
2022-10-22T06:47:26.984Z,2.67
2022-10-22T06:47:58.372Z,2.50
2022-10-22T06:48:30.258Z,2.90
2022-10-22T06:49:02.269Z,2.35
2022-10-22T06:49:33.760Z,2.50
2022-10-22T06:50:05.377Z,2.95
2022-10-22T06:50:36.998Z,3.05
2022-10-22T06:51:10.165Z,3.58
2022-10-22T06:51:41.863Z,2.78
2022-10-22T06:52:13.190Z,3.38
2022-10-22T06:52:44.583Z,2.95
2022-10-22T06:53:16.003Z,3.30
2022-10-22T06:53:47.920Z,3.38
2022-10-22T06:54:19.791Z,3.83
2022-10-22T06:54:51.162Z,3.42
2022-10-22T06:55:22.641Z,3.63
2022-10-22T06:55:54.032Z,3.38
2022-10-22T06:56:27.404Z,3.73
2022-10-22T06:56:58.759Z,3.42
2022-10-22T06:57:30.662Z,2.90
2022-10-22T06:58:02.137Z,3.00
2022-10-22T06:58:33.567Z,3.13
2022-10-22T06:59:04.959Z,2.90
2022-10-22T06:59:36.443Z,3.20
2022-10-22T07:00:08.446Z,3.08
2022-10-22T07:00:39.924Z,2.67
2022-10-22T07:01:12.639Z,2.83
2022-10-22T07:01:44.246Z,2.70
2022-10-22T07:02:15.632Z,2.72
2022-10-22T07:02:50.432Z,3.20
2022-10-22T07:03:21.823Z,4.10
2022-10-22T07:03:53.419Z,3.05
2022-10-22T07:04:24.801Z,3.00
2022-10-22T07:04:56.290Z,3.00
2022-10-22T07:05:27.728Z,2.85
2022-10-22T07:06:02.494Z,2.28
2022-10-22T07:06:33.991Z,2.45
2022-10-22T07:07:05.420Z,3.05
2022-10-22T07:07:36.804Z,3.50
2022-10-22T07:08:08.471Z,2.97
2022-10-22T07:08:40.502Z,3.30
2022-10-22T07:09:11.997Z,3.10
2022-10-22T07:09:43.569Z,3.42
2022-10-22T07:10:15.070Z,2.58
2022-10-22T07:10:46.504Z,2.78
2022-10-22T07:11:18.880Z,2.83
2022-10-22T07:11:50.612Z,2.63
2022-10-22T07:12:22.041Z,3.15
2022-10-22T07:12:53.484Z,3.10
2022-10-22T07:13:24.873Z,4.05
2022-10-22T07:13:57.377Z,3.30
2022-10-22T07:14:28.777Z,2.78
2022-10-22T07:15:00.101Z,2.83
2022-10-22T07:15:31.437Z,3.22
2022-10-22T07:16:03.105Z,4.07
2022-10-22T07:16:34.633Z,3.45
2022-10-22T07:17:06.070Z,2.85
2022-10-22T07:17:37.529Z,3.22
2022-10-22T07:18:09.052Z,2.40
2022-10-22T07:18:41.392Z,2.55
2022-10-22T07:19:13.304Z,2.83